createdAt,value
2023-01-29T00:01:46.506Z,12.30
2023-01-29T00:04:20.282Z,11.70
2023-01-29T00:06:50.147Z,11.30
2023-01-29T00:09:19.540Z,11.60
2023-01-29T00:11:48.508Z,11.80
2023-01-29T00:14:17.125Z,11.00
2023-01-29T00:16:46.404Z,11.60
2023-01-29T00:19:14.841Z,10.70
2023-01-29T00:21:43.745Z,12.00
2023-01-29T00:24:17.113Z,10.80
2023-01-29T00:26:45.581Z,12.40
2023-01-29T00:29:15.280Z,12.50
2023-01-29T00:31:45.829Z,12.00
2023-01-29T00:34:14.925Z,12.40
2023-01-29T00:36:46.154Z,11.70
2023-01-29T00:39:14.672Z,11.60
2023-01-29T00:42:05.330Z,12.10
2023-01-29T00:44:55.071Z,12.00
2023-01-29T00:47:34.584Z,12.80
2023-01-29T00:50:28.850Z,10.90
2023-01-29T00:52:57.803Z,13.20
2023-01-29T00:55:31.365Z,11.00
2023-01-29T00:58:15.869Z,11.80
2023-01-29T01:00:45.553Z,12.30
2023-01-29T01:03:16.959Z,11.50
2023-01-29T01:05:45.381Z,11.80
2023-01-29T01:08:32.516Z,12.80
2023-01-29T01:11:04.162Z,13.30
2023-01-29T01:13:35.047Z,11.40
2023-01-29T01:16:11.580Z,13.80
2023-01-29T01:18:40.153Z,12.90
2023-01-29T01:21:12.469Z,14.50
2023-01-29T01:23:43.758Z,13.60
2023-01-29T01:26:15.412Z,13.70
2023-01-29T01:28:44.785Z,12.80
2023-01-29T01:31:13.885Z,13.50
2023-01-29T01:33:42.271Z,12.90
2023-01-29T01:36:11.281Z,12.90
2023-01-29T01:38:45.812Z,13.20
2023-01-29T01:41:19.144Z,12.10
2023-01-29T01:44:03.988Z,11.40
2023-01-29T01:46:36.237Z,10.90
2023-01-29T01:49:05.958Z,11.40
2023-01-29T01:51:42.114Z,12.00
2023-01-29T08:58:12.292Z,19.70
2023-01-29T09:00:39.454Z,20.60
2023-01-29T09:03:07.421Z,21.70
2023-01-29T09:05:35.555Z,20.30
2023-01-29T09:08:02.743Z,19.00
2023-01-29T09:10:37.978Z,20.10
2023-01-29T09:13:04.943Z,25.80
2023-01-29T09:15:33.609Z,23.30
2023-01-29T09:18:09.438Z,20.80
2023-01-29T09:20:38.422Z,22.40
2023-01-29T09:23:08.116Z,23.10
2023-01-29T09:25:37.064Z,20.30
2023-01-29T09:28:06.850Z,20.80
2023-01-29T09:30:37.782Z,20.80
2023-01-29T09:33:10.427Z,20.00
2023-01-29T09:35:40.304Z,20.60
2023-01-29T09:38:10.449Z,19.30
2023-01-29T09:40:41.264Z,20.20
2023-01-29T09:43:15.162Z,19.10
2023-01-29T09:45:50.097Z,18.20
2023-01-29T09:48:18.618Z,19.20
2023-01-29T14:12:41.838Z,13.00
2023-01-29T14:15:35.204Z,12.80
2023-01-29T14:18:26.931Z,13.00
2023-01-29T14:21:18.241Z,12.70
2023-01-29T14:23:50.329Z,14.50
2023-01-29T14:26:32.145Z,14.30
2023-01-29T14:29:35.055Z,13.00
2023-01-29T14:32:08.257Z,13.30
2023-01-29T14:34:45.424Z,13.00
2023-01-29T14:37:18.006Z,12.80
2023-01-29T14:42:48.226Z,11.30
2023-01-29T14:45:43.699Z,12.90
2023-01-29T14:48:12.780Z,12.00
2023-01-29T14:50:42.401Z,12.80
2023-01-29T14:53:41.889Z,14.20
2023-01-29T14:56:14.369Z,13.80
2023-01-29T14:58:53.650Z,13.50
2023-01-29T15:01:30.862Z,13.40
2023-01-29T15:04:14.536Z,12.70
2023-01-29T15:07:02.011Z,13.80
2023-01-29T15:09:54.209Z,13.50
2023-01-29T15:12:41.435Z,12.00
2023-01-29T15:15:34.239Z,13.40
2023-01-29T15:18:20.006Z,13.50
2023-01-29T15:20:51.851Z,12.40
2023-01-29T15:23:27.834Z,13.30
2023-01-29T15:25:58.905Z,15.60
2023-01-29T15:28:34.757Z,15.20
2023-01-29T15:31:07.399Z,14.70
2023-01-29T15:33:36.372Z,13.00
2023-01-29T15:36:07.645Z,15.60
2023-01-29T15:41:20.017Z,13.40
2023-01-29T15:43:51.920Z,14.30
2023-01-29T15:46:39.174Z,14.10
2023-01-29T15:49:33.907Z,13.10
2023-01-29T15:52:17.823Z,13.40
2023-01-29T15:54:51.688Z,13.30
2023-01-29T15:57:27.171Z,14.40
2023-01-29T15:59:59.605Z,14.90
2023-01-29T16:02:40.205Z,15.40
2023-01-29T16:07:53.081Z,14.80
2023-01-29T16:10:28.850Z,14.90
2023-01-29T16:12:58.572Z,14.80
2023-01-29T16:16:09.014Z,14.90
2023-01-29T16:18:57.917Z,14.00
2023-01-29T16:21:40.954Z,15.30
2023-01-29T16:24:16.507Z,14.90
2023-01-29T16:26:47.215Z,13.70
2023-01-29T16:29:21.707Z,14.60
2023-01-29T16:31:52.493Z,14.70
2023-01-29T16:34:44.842Z,14.40
2023-01-29T16:37:21.934Z,14.80
2023-01-29T16:39:53.118Z,15.80
2023-01-29T16:42:25.947Z,16.50
2023-01-29T16:44:57.365Z,16.10
2023-01-29T16:47:32.918Z,14.10
2023-01-29T16:50:46.387Z,14.90
2023-01-29T16:53:32.813Z,13.70
2023-01-29T16:56:07.104Z,14.50
2023-01-29T16:58:37.232Z,14.20
2023-01-29T17:01:09.658Z,14.10
2023-01-29T17:03:40.619Z,12.60
2023-01-29T17:06:11.949Z,13.70
2023-01-29T17:08:48.497Z,15.40
2023-01-29T17:11:49.383Z,13.40
2023-01-29T17:14:20.349Z,12.70
2023-01-29T17:19:26.133Z,11.90
2023-01-29T17:21:59.184Z,13.30
2023-01-29T17:24:27.792Z,12.80
2023-01-29T17:27:00.729Z,10.30
2023-01-29T17:29:34.570Z,10.70
2023-01-29T17:32:05.450Z,10.60
2023-01-29T17:34:37.561Z,11.70
2023-01-29T17:37:13.617Z,10.40
2023-01-29T17:39:50.610Z,9.50
2023-01-29T17:42:35.948Z,9.70
2023-01-29T17:45:13.715Z,9.90
2023-01-29T17:47:47.250Z,10.00
2023-01-29T21:57:08.799Z,6.70
2023-01-29T21:59:52.874Z,6.60
2023-01-29T22:02:33.558Z,6.60
2023-01-29T22:05:18.289Z,7.20
2023-01-29T22:07:49.860Z,6.60
2023-01-29T22:10:19.528Z,8.00
2023-01-29T22:13:02.214Z,6.90
2023-01-29T22:15:35.966Z,8.10
2023-01-29T22:18:07.568Z,8.10
2023-01-29T22:20:37.463Z,7.50
2023-01-29T22:23:08.292Z,6.90
2023-01-29T22:25:36.574Z,6.30
2023-01-29T22:28:05.196Z,7.00
2023-01-29T22:30:34.674Z,7.80
2023-01-29T22:33:04.108Z,7.10
2023-01-29T22:36:15.102Z,7.10
2023-01-29T22:38:42.710Z,7.60
2023-01-29T22:41:10.020Z,6.70
2023-01-29T22:43:37.990Z,6.90
2023-01-29T22:46:08.519Z,8.10
2023-01-29T22:48:39.595Z,6.70
2023-01-29T22:51:13.239Z,6.00
2023-01-29T22:53:49.604Z,7.30
2023-01-29T22:56:20.265Z,5.80
2023-01-29T22:58:53.671Z,6.20
2023-01-29T23:01:24.992Z,6.00
2023-01-29T23:03:54.264Z,7.50
2023-01-29T23:06:21.975Z,6.30
2023-01-29T23:08:51.993Z,5.70
2023-01-29T23:11:23.160Z,7.40
2023-01-29T23:13:56.050Z,6.90
2023-01-29T23:16:26.809Z,5.90
2023-01-29T23:21:25.689Z,5.70
2023-01-29T23:23:54.811Z,5.70
2023-01-29T23:26:40.748Z,6.40
2023-01-29T23:29:08.636Z,6.50
2023-01-29T23:31:36.614Z,6.90
2023-01-29T23:34:03.691Z,6.70
2023-01-29T23:36:35.730Z,5.90
2023-01-29T23:39:06.625Z,7.00
2023-01-29T23:41:37.039Z,6.10
2023-01-29T23:44:05.287Z,6.60
2023-01-29T23:46:33.456Z,6.80
2023-01-29T23:49:04.106Z,7.30
2023-01-29T23:51:31.644Z,6.90
2023-01-29T23:54:00.546Z,7.20
2023-01-29T23:56:29.841Z,7.30
2023-01-29T23:58:58.505Z,6.80
